Peridot — 3EYN6 — position and weather

sailwx.info

Track history (hours):
 
Tides and Currents Weather Stations Pressure Air Temp Water Temp Dewpoint Dewpoint Depression Visibility Wind Speed Wind Dir Waves Ship Positions

Peridot

Last reported at 2017-Oct-15 08:42 UTC. Time now 2017-Nov-24 15:04 UTC.
Position N 22°20' E 119°48'.
Warning: this ship's position is 40 days out of date.

Length 189 m; draft 6.7 m.

Type: Cargo ship. MMSI: 373140000.

Date/timePositionNaut miles runAvg speedWind from/ knotsBaromVisibWave heightAir tempDewpointWater temp
2017-Oct-15 08:42N 22°20' E 119°48'2 7.7
2017-Oct-15 08:24N 22°23' E 119°48'5 7.8
2017-Oct-15 07:44N 22°28' E 119°48'2 7.0
2017-Oct-15 07:30N 22°30' E 119°48'3 6.7
2017-Oct-15 07:00N 22°33' E 119°48'4 7.1
2017-Oct-15 06:29N 22°37' E 119°48'3 6.9
2017-Oct-15 06:00N 22°40' E 119°48'6 7.5
2017-Oct-15 05:14N 22°46' E 119°48'2 8.6
2017-Oct-15 04:59N 22°48' E 119°49'100 6.1
2017-Oct-14 12:27N 24°05' E 118°39'2 3.8
2017-Oct-14 11:58N 24°05' E 118°37'1 2.8
2017-Oct-14 11:30N 24°04' E 118°36'2 3.3
2017-Oct-14 10:58N 24°05' E 118°34'2 3.9
2017-Oct-14 10:30N 24°06' E 118°32'2 4.6
2017-Oct-14 10:00N 24°07' E 118°30'2 4.2
2017-Oct-14 09:30N 24°08' E 118°28'2 4.7
2017-Oct-14 09:00N 24°09' E 118°26'3 5.8
2017-Oct-14 08:30N 24°10' E 118°23'3 6.4
2017-Oct-14 08:00N 24°11' E 118°20'4 7.8
2017-Oct-14 07:30N 24°12' E 118°16'4 9.0
2017-Oct-14 07:00N 24°15' E 118°12'5 9.7
2017-Oct-14 06:30N 24°20' E 118°11'510.2
2017-Oct-14 06:00N 24°23' E 118°07'1 2.8
2017-Oct-14 05:30N 24°25' E 118°06'0 0.3
2017-Oct-14 04:59N 24°25' E 118°06'0 0.1
2017-Oct-14 04:29N 24°25' E 118°06'0 0.1
2017-Oct-14 03:59N 24°25' E 118°06'0 0.2
2017-Oct-14 03:29N 24°25' E 118°07'0 0.0
2017-Oct-14 02:59N 24°25' E 118°07'0 0.1
2017-Oct-14 02:29N 24°25' E 118°06'0 0.0
2017-Oct-14 01:59N 24°25' E 118°06'0 0.0
2017-Oct-13 23:20N 24°25' E 118°06'0 0.2
2017-Oct-13 22:59N 24°25' E 118°06'0 0.2
2017-Oct-13 22:29N 24°25' E 118°06'0 0.2
2017-Oct-13 21:56N 24°25' E 118°06'0 0.0
2017-Oct-13 21:29N 24°25' E 118°06'0 0.1
2017-Oct-13 20:59N 24°25' E 118°06'0 0.1
2017-Oct-13 20:29N 24°25' E 118°06'0 0.0
2017-Oct-13 19:59N 24°25' E 118°06'0 0.0
2017-Oct-13 19:29N 24°25' E 118°06'0 0.0
2017-Oct-13 18:59N 24°25' E 118°06'0 0.0
2017-Oct-13 18:29N 24°25' E 118°06'0 0.1
2017-Oct-13 17:59N 24°25' E 118°06'0 0.1
2017-Oct-13 17:29N 24°25' E 118°06'0 0.1
2017-Oct-13 16:59N 24°25' E 118°06'0 0.0
2017-Oct-13 16:29N 24°25' E 118°06'0 0.0
2017-Oct-13 16:00N 24°25' E 118°06'0 0.0
2017-Oct-13 15:29N 24°25' E 118°06'0 0.0
2017-Oct-13 14:59N 24°25' E 118°06'0 0.1
2017-Oct-13 14:29N 24°25' E 118°07'0 0.7
2017-Oct-13 14:00N 24°24' E 118°06'1 2.5
2017-Oct-13 13:30N 24°23' E 118°07'4 9.0
2017-Oct-13 13:00N 24°20' E 118°10'5 9.3
2017-Oct-13 12:30N 24°15' E 118°11'510.9
2017-Oct-13 12:00N 24°12' E 118°16'611.9
2017-Oct-13 11:31N 24°12' E 118°23'714.3
2017-Oct-13 11:01N 24°15' E 118°30'  
Track history (hours):
 
Tides and Currents Weather Stations Pressure Air Temp Water Temp Dewpoint Dewpoint Depression Visibility Wind Speed Wind Dir Waves Ship Positions

Peridot

Last reported at 2017-Oct-15 08:42 UTC. Time now 2017-Nov-24 15:04 UTC.
Position N 22°20' E 119°48'.
Warning: this ship's position is 40 days out of date.

Length 189 m; draft 6.7 m.

Type: Cargo ship. MMSI: 373140000.

Date/timePositionNaut miles runAvg speedWind from/ knotsBaromVisibWave heightAir tempDewpointWater temp
2017-Oct-15 08:42N 22°20' E 119°48'2 7.7
2017-Oct-15 08:24N 22°23' E 119°48'5 7.8
2017-Oct-15 07:44N 22°28' E 119°48'2 7.0
2017-Oct-15 07:30N 22°30' E 119°48'3 6.7
2017-Oct-15 07:00N 22°33' E 119°48'4 7.1
2017-Oct-15 06:29N 22°37' E 119°48'3 6.9
2017-Oct-15 06:00N 22°40' E 119°48'6 7.5
2017-Oct-15 05:14N 22°46' E 119°48'2 8.6
2017-Oct-15 04:59N 22°48' E 119°49'100 6.1
2017-Oct-14 12:27N 24°05' E 118°39'2 3.8
2017-Oct-14 11:58N 24°05' E 118°37'1 2.8
2017-Oct-14 11:30N 24°04' E 118°36'2 3.3
2017-Oct-14 10:58N 24°05' E 118°34'2 3.9
2017-Oct-14 10:30N 24°06' E 118°32'2 4.6
2017-Oct-14 10:00N 24°07' E 118°30'2 4.2
2017-Oct-14 09:30N 24°08' E 118°28'2 4.7
2017-Oct-14 09:00N 24°09' E 118°26'3 5.8
2017-Oct-14 08:30N 24°10' E 118°23'3 6.4
2017-Oct-14 08:00N 24°11' E 118°20'4 7.8
2017-Oct-14 07:30N 24°12' E 118°16'4 9.0
2017-Oct-14 07:00N 24°15' E 118°12'5 9.7
2017-Oct-14 06:30N 24°20' E 118°11'510.2
2017-Oct-14 06:00N 24°23' E 118°07'1 2.8
2017-Oct-14 05:30N 24°25' E 118°06'0 0.3
2017-Oct-14 04:59N 24°25' E 118°06'0 0.1
2017-Oct-14 04:29N 24°25' E 118°06'0 0.1
2017-Oct-14 03:59N 24°25' E 118°06'0 0.2
2017-Oct-14 03:29N 24°25' E 118°07'0 0.0
2017-Oct-14 02:59N 24°25' E 118°07'0 0.1
2017-Oct-14 02:29N 24°25' E 118°06'0 0.0
2017-Oct-14 01:59N 24°25' E 118°06'0 0.0
2017-Oct-13 23:20N 24°25' E 118°06'0 0.2
2017-Oct-13 22:59N 24°25' E 118°06'0 0.2
2017-Oct-13 22:29N 24°25' E 118°06'0 0.2
2017-Oct-13 21:56N 24°25' E 118°06'0 0.0
2017-Oct-13 21:29N 24°25' E 118°06'0 0.1
2017-Oct-13 20:59N 24°25' E 118°06'0 0.1
2017-Oct-13 20:29N 24°25' E 118°06'0 0.0
2017-Oct-13 19:59N 24°25' E 118°06'0 0.0
2017-Oct-13 19:29N 24°25' E 118°06'0 0.0
2017-Oct-13 18:59N 24°25' E 118°06'0 0.0
2017-Oct-13 18:29N 24°25' E 118°06'0 0.1
2017-Oct-13 17:59N 24°25' E 118°06'0 0.1
2017-Oct-13 17:29N 24°25' E 118°06'0 0.1
2017-Oct-13 16:59N 24°25' E 118°06'0 0.0
2017-Oct-13 16:29N 24°25' E 118°06'0 0.0
2017-Oct-13 16:00N 24°25' E 118°06'0 0.0
2017-Oct-13 15:29N 24°25' E 118°06'0 0.0
2017-Oct-13 14:59N 24°25' E 118°06'0 0.1
2017-Oct-13 14:29N 24°25' E 118°07'0 0.7
2017-Oct-13 14:00N 24°24' E 118°06'1 2.5
2017-Oct-13 13:30N 24°23' E 118°07'4 9.0
2017-Oct-13 13:00N 24°20' E 118°10'5 9.3
2017-Oct-13 12:30N 24°15' E 118°11'510.9
2017-Oct-13 12:00N 24°12' E 118°16'611.9
2017-Oct-13 11:31N 24°12' E 118°23'714.3
2017-Oct-13 11:01N 24°15' E 118°30'  

Dump ship's entire track history